createdAt,value
2018-08-18T00:01:27.747Z,3.47
2018-08-18T00:03:55.920Z,3.47
2018-08-18T00:06:24.125Z,2.97
2018-08-18T00:08:52.296Z,3.20
2018-08-18T00:11:21.175Z,3.30
2018-08-18T00:13:53.121Z,3.10
2018-08-18T00:16:24.782Z,3.30
2018-08-18T00:18:54.576Z,3.40
2018-08-18T00:21:22.745Z,3.13
2018-08-18T00:23:56.557Z,3.20
2018-08-18T00:26:24.817Z,3.40
2018-08-18T00:28:53.003Z,3.50
2018-08-18T00:31:21.250Z,3.37
2018-08-18T00:33:49.435Z,3.10
2018-08-18T00:36:17.597Z,3.60
2018-08-18T00:38:45.771Z,3.23
2018-08-18T00:41:13.947Z,3.50
2018-08-18T00:43:42.161Z,3.27
2018-08-18T00:46:10.360Z,3.33
2018-08-18T00:48:38.604Z,3.40
2018-08-18T00:51:06.819Z,3.43
2018-08-18T00:53:35.005Z,3.90
2018-08-18T00:56:04.304Z,3.57
2018-08-18T00:58:32.553Z,4.40
2018-08-18T01:01:03.272Z,3.37
2018-08-18T01:03:34.404Z,3.97
2018-08-18T01:06:12.271Z,3.87
2018-08-18T01:08:40.488Z,4.43
2018-08-18T01:11:08.368Z,4.13
2018-08-18T01:13:36.481Z,4.13
2018-08-18T01:16:04.724Z,4.30
2018-08-18T01:18:32.900Z,4.70
2018-08-18T01:21:01.100Z,3.70
2018-08-18T01:23:29.309Z,4.80
2018-08-18T01:25:57.502Z,5.30
2018-08-18T01:28:25.688Z,4.77
2018-08-18T01:31:03.796Z,5.30
2018-08-18T01:33:31.941Z,5.13
2018-08-18T01:36:00.089Z,4.93
2018-08-18T01:38:28.256Z,5.60
2018-08-18T01:41:01.964Z,5.23
2018-08-18T01:43:30.133Z,5.43
2018-08-18T01:45:58.332Z,4.70
2018-08-18T01:48:26.516Z,5.13
2018-08-18T01:50:56.193Z,5.03
2018-08-18T01:53:24.367Z,5.70
2018-08-18T01:55:52.573Z,5.60
2018-08-18T01:58:20.741Z,5.23
2018-08-18T02:00:49.000Z,5.90
2018-08-18T02:03:17.171Z,5.90
2018-08-18T02:05:45.377Z,5.77
2018-08-18T02:08:13.541Z,6.00
2018-08-18T02:10:41.703Z,5.90
2018-08-18T02:13:09.876Z,5.33
2018-08-18T02:15:38.096Z,5.83
2018-08-18T02:18:06.318Z,5.27
2018-08-18T02:20:34.487Z,5.27
2018-08-18T02:23:02.768Z,5.90
2018-08-18T02:25:30.951Z,5.20
2018-08-18T02:27:59.149Z,4.90
2018-08-18T02:30:27.360Z,4.90
2018-08-18T02:32:55.526Z,4.83
2018-08-18T02:35:23.890Z,4.93
2018-08-18T02:37:52.093Z,5.30
2018-08-18T02:40:20.304Z,4.73
2018-08-18T02:42:48.480Z,5.50
2018-08-18T02:45:16.998Z,5.70
2018-08-18T02:47:45.196Z,5.50
2018-08-18T02:50:14.027Z,5.43
2018-08-18T02:52:42.193Z,5.90
2018-08-18T02:55:10.956Z,6.90
2018-08-18T02:57:41.188Z,6.67
2018-08-18T03:00:13.513Z,6.97
2018-08-18T03:02:41.680Z,7.47
2018-08-18T03:05:09.905Z,6.10
2018-08-18T03:07:41.031Z,6.90
2018-08-18T03:10:17.464Z,7.73
2018-08-18T03:12:46.443Z,7.97
2018-08-18T03:15:26.516Z,7.33
2018-08-18T03:17:54.687Z,7.23
2018-08-18T03:20:22.874Z,7.43
2018-08-18T03:22:51.081Z,7.90
2018-08-18T03:25:19.267Z,6.23
2018-08-18T03:27:47.436Z,7.00
2018-08-18T03:30:15.631Z,8.17
2018-08-18T03:32:43.794Z,8.50
2018-08-18T03:35:11.957Z,8.30
2018-08-18T03:37:40.175Z,8.30
2018-08-18T03:40:08.334Z,7.40
2018-08-18T03:42:40.815Z,8.37
2018-08-18T03:45:09.033Z,9.10
2018-08-18T03:47:37.247Z,9.37
2018-08-18T03:50:05.590Z,10.13
2018-08-18T03:52:33.890Z,8.87
2018-08-18T03:55:02.018Z,9.37
2018-08-18T03:57:40.859Z,8.50
2018-08-18T04:00:09.030Z,8.97
2018-08-18T04:02:37.195Z,9.60
2018-08-18T04:05:08.980Z,8.90
2018-08-18T04:07:51.958Z,8.67
2018-08-18T04:10:20.126Z,8.27
2018-08-18T04:12:48.320Z,9.00
2018-08-18T04:15:16.929Z,9.23
2018-08-18T04:17:45.100Z,8.67
2018-08-18T04:20:13.587Z,8.57
2018-08-18T04:22:42.061Z,8.33
2018-08-18T04:25:10.318Z,9.80
2018-08-18T04:27:39.498Z,10.30
2018-08-18T04:30:09.982Z,10.00
2018-08-18T04:32:43.664Z,10.40
2018-08-18T04:35:11.871Z,9.17
2018-08-18T04:37:40.009Z,9.80
2018-08-18T04:40:08.260Z,10.37
2018-08-18T04:42:36.445Z,10.73
2018-08-18T04:45:04.804Z,9.37
2018-08-18T04:47:33.006Z,9.80
2018-08-18T04:50:01.192Z,10.13
2018-08-18T04:52:29.387Z,9.90
2018-08-18T04:54:57.600Z,11.20
2018-08-18T04:57:25.773Z,10.00
2018-08-18T04:59:53.974Z,10.67
2018-08-18T05:02:22.181Z,11.57
2018-08-18T05:04:50.334Z,12.73
2018-08-18T05:07:18.528Z,12.87
2018-08-18T05:09:46.769Z,14.00
2018-08-18T05:12:14.919Z,13.00
2018-08-18T05:14:43.086Z,12.53
2018-08-18T05:17:11.235Z,11.83
2018-08-18T05:19:39.470Z,13.87
2018-08-18T05:22:08.101Z,12.53
2018-08-18T05:24:36.320Z,13.50
2018-08-18T05:27:10.706Z,13.60
2018-08-18T05:29:39.100Z,13.07
2018-08-18T05:32:08.698Z,13.90
2018-08-18T05:34:36.869Z,14.20
2018-08-18T05:37:05.162Z,13.07
2018-08-18T05:39:33.374Z,11.77
2018-08-18T05:42:01.989Z,16.67
2018-08-18T05:44:30.144Z,13.83
2018-08-18T05:46:58.324Z,13.73
2018-08-18T05:49:26.530Z,15.40
2018-08-18T05:51:54.730Z,13.47
2018-08-18T05:54:27.713Z,15.13
2018-08-18T05:56:55.968Z,13.93
2018-08-18T05:59:24.284Z,14.23
2018-08-18T06:01:52.556Z,16.03
2018-08-18T06:04:21.107Z,13.80
2018-08-18T06:06:50.014Z,13.50
2018-08-18T06:09:19.474Z,14.20
2018-08-18T06:11:47.642Z,13.73
2018-08-18T06:14:16.320Z,13.70
2018-08-18T06:16:45.001Z,13.10
2018-08-18T06:19:13.196Z,13.40
2018-08-18T06:21:41.413Z,13.17
2018-08-18T06:24:09.569Z,13.63
2018-08-18T06:26:37.791Z,12.00
2018-08-18T06:29:06.002Z,13.47
2018-08-18T06:31:36.680Z,12.97
2018-08-18T06:34:04.856Z,10.70
2018-08-18T06:36:33.049Z,13.90
2018-08-18T06:39:01.238Z,13.57
2018-08-18T06:41:29.463Z,12.73
2018-08-18T06:43:57.606Z,11.93
2018-08-18T06:46:25.788Z,12.47
2018-08-18T06:48:54.009Z,11.40
2018-08-18T06:51:22.222Z,11.47
2018-08-18T06:53:50.400Z,11.00
2018-08-18T06:56:18.651Z,11.80
2018-08-18T06:58:46.872Z,12.20
2018-08-18T07:01:15.013Z,11.40
2018-08-18T07:03:45.778Z,10.63
2018-08-18T07:06:15.028Z,11.53
2018-08-18T07:08:58.859Z,11.87
2018-08-18T07:11:27.047Z,12.40
2018-08-18T07:13:55.221Z,13.83
2018-08-18T07:16:23.400Z,10.63
2018-08-18T07:18:51.521Z,11.63
2018-08-18T07:21:19.726Z,11.60
2018-08-18T07:23:47.884Z,12.10
2018-08-18T07:26:16.073Z,14.00
2018-08-18T07:28:44.382Z,11.73
2018-08-18T07:31:12.461Z,12.50
2018-08-18T07:33:40.650Z,12.50
2018-08-18T07:36:08.840Z,12.47
2018-08-18T07:38:37.035Z,10.47
2018-08-18T07:41:05.235Z,12.20
2018-08-18T07:43:34.605Z,12.10
2018-08-18T07:46:04.273Z,12.23
2018-08-18T07:48:32.438Z,12.33
2018-08-18T07:51:00.630Z,12.63
2018-08-18T07:53:29.009Z,11.77
2018-08-18T07:55:57.150Z,13.50
2018-08-18T07:58:25.691Z,11.27
2018-08-18T08:00:55.958Z,11.50
2018-08-18T08:03:24.136Z,12.60
2018-08-18T08:05:52.385Z,10.60
2018-08-18T08:08:20.523Z,12.90
2018-08-18T08:10:48.714Z,11.47
2018-08-18T08:13:16.879Z,12.60
2018-08-18T08:15:45.075Z,11.37
2018-08-18T08:18:14.162Z,11.10
2018-08-18T08:20:42.304Z,12.30
2018-08-18T08:23:10.492Z,11.70
2018-08-18T08:25:38.683Z,11.53
2018-08-18T08:28:06.906Z,12.57
2018-08-18T08:30:35.120Z,11.90
2018-08-18T08:33:03.343Z,11.77
2018-08-18T08:35:31.560Z,13.00
2018-08-18T08:37:59.746Z,13.67
2018-08-18T08:40:27.974Z,12.53
2018-08-18T08:42:56.259Z,11.23
2018-08-18T08:45:24.423Z,12.77
2018-08-18T08:47:52.616Z,12.13
2018-08-18T08:50:22.184Z,12.03
2018-08-18T08:52:52.587Z,11.90
2018-08-18T08:55:23.029Z,11.33
2018-08-18T08:57:51.231Z,11.10
2018-08-18T09:00:19.438Z,11.37
2018-08-18T09:02:47.608Z,11.20
2018-08-18T09:05:15.836Z,10.47
2018-08-18T09:07:44.056Z,11.50
2018-08-18T09:10:13.278Z,11.70
2018-08-18T09:12:41.545Z,11.70
2018-08-18T09:15:10.599Z,11.97
2018-08-18T09:17:38.816Z,12.30
2018-08-18T09:20:08.203Z,12.40
2018-08-18T09:22:52.356Z,11.73
2018-08-18T09:25:20.518Z,11.40
2018-08-18T09:27:55.022Z,12.03
2018-08-18T09:30:24.104Z,10.20
2018-08-18T09:32:52.328Z,11.03
2018-08-18T09:35:20.520Z,10.53
2018-08-18T09:37:58.288Z,9.70
2018-08-18T09:40:26.757Z,11.73
2018-08-18T09:42:54.985Z,10.60
2018-08-18T09:45:23.154Z,10.93
2018-08-18T09:47:51.328Z,11.17
2018-08-18T09:50:19.512Z,11.27
2018-08-18T09:52:47.705Z,10.50
2018-08-18T09:55:15.896Z,10.10
2018-08-18T09:57:44.091Z,10.23
2018-08-18T10:00:14.846Z,9.70
2018-08-18T10:02:43.158Z,11.10
2018-08-18T10:05:11.491Z,10.53
2018-08-18T10:07:40.016Z,10.20
2018-08-18T10:10:09.000Z,9.80
2018-08-18T10:12:37.248Z,11.40
2018-08-18T10:15:05.453Z,12.20
2018-08-18T10:17:33.640Z,11.07
2018-08-18T10:20:01.831Z,10.77
2018-08-18T10:22:30.018Z,10.73
2018-08-18T10:24:58.201Z,12.13
2018-08-18T10:27:26.481Z,11.80
2018-08-18T10:29:54.621Z,10.63
2018-08-18T10:32:22.801Z,12.40
2018-08-18T10:34:50.988Z,12.40
2018-08-18T10:37:19.122Z,11.23
2018-08-18T10:39:47.346Z,10.70
2018-08-18T10:42:30.949Z,11.17
2018-08-18T10:45:00.066Z,10.53
2018-08-18T10:47:28.239Z,12.47
2018-08-18T10:50:01.852Z,12.47
2018-08-18T10:52:36.245Z,11.27
2018-08-18T10:55:06.229Z,10.63
2018-08-18T10:57:40.089Z,9.47
2018-08-18T11:00:10.104Z,9.03
2018-08-18T11:02:38.273Z,8.73
2018-08-18T11:05:06.641Z,8.00
2018-08-18T11:07:34.835Z,8.17
2018-08-18T11:10:03.002Z,8.23
2018-08-18T11:12:33.534Z,7.63
2018-08-18T11:15:02.178Z,8.07
2018-08-18T11:17:31.449Z,8.50
2018-08-18T11:20:17.567Z,8.73
2018-08-18T11:22:53.288Z,8.17
2018-08-18T11:25:21.917Z,8.00
2018-08-18T11:27:50.124Z,7.77
2018-08-18T11:30:18.769Z,8.00
2018-08-18T11:32:46.978Z,9.13
2018-08-18T11:35:16.171Z,9.73
2018-08-18T11:37:52.398Z,8.20
2018-08-18T11:40:21.092Z,9.00
2018-08-18T11:42:49.579Z,9.27
2018-08-18T11:45:18.510Z,7.80
2018-08-18T11:48:21.683Z,8.70
2018-08-18T11:50:50.847Z,10.63
2018-08-18T11:53:19.018Z,8.90
2018-08-18T11:55:47.204Z,9.10
2018-08-18T11:58:16.519Z,8.00
2018-08-18T12:00:47.013Z,8.93
2018-08-18T12:03:19.100Z,8.40
2018-08-18T12:05:50.548Z,9.00
2018-08-18T12:08:18.969Z,7.90
2018-08-18T12:10:48.021Z,9.53
2018-08-18T12:13:16.174Z,8.70
2018-08-18T12:15:57.110Z,8.30
2018-08-18T12:18:26.496Z,7.47
2018-08-18T12:20:56.337Z,7.47
2018-08-18T12:23:24.584Z,8.00
2018-08-18T12:25:58.876Z,7.37
2018-08-18T12:28:31.364Z,7.73
2018-08-18T12:30:59.566Z,7.17
2018-08-18T12:33:27.857Z,7.13
2018-08-18T12:35:56.111Z,6.60
2018-08-18T12:38:24.332Z,7.13
2018-08-18T12:40:52.526Z,7.20
2018-08-18T12:43:26.796Z,6.70
2018-08-18T12:45:56.367Z,6.57
2018-08-18T12:48:24.506Z,6.60
2018-08-18T12:50:52.700Z,6.43
2018-08-18T12:53:20.883Z,6.40
2018-08-18T12:55:55.749Z,6.43
2018-08-18T12:58:23.960Z,5.90
2018-08-18T13:00:52.148Z,6.53
2018-08-18T13:03:21.025Z,5.73
2018-08-18T13:05:49.257Z,6.23
2018-08-18T13:08:17.424Z,6.10
2018-08-18T13:10:45.616Z,7.47
2018-08-18T13:13:13.837Z,7.03
2018-08-18T13:15:42.069Z,6.10
2018-08-18T13:18:10.279Z,6.97
2018-08-18T13:20:38.529Z,6.47
2018-08-18T13:23:06.716Z,7.00
2018-08-18T13:25:34.892Z,6.87
2018-08-18T13:28:04.117Z,6.90
2018-08-18T13:30:32.516Z,6.40
2018-08-18T13:33:00.777Z,7.13
2018-08-18T13:35:28.964Z,6.93
2018-08-18T13:37:57.191Z,6.90
2018-08-18T13:40:26.519Z,7.23
2018-08-18T13:42:54.770Z,6.93
2018-08-18T13:45:41.147Z,7.20
2018-08-18T13:48:10.152Z,7.00
2018-08-18T13:50:38.376Z,7.13
2018-08-18T13:53:06.669Z,6.40
2018-08-18T13:55:41.031Z,6.67
2018-08-18T13:58:10.167Z,7.70
2018-08-18T14:00:38.369Z,6.60
2018-08-18T14:03:26.174Z,7.47
2018-08-18T14:05:54.798Z,6.90
2018-08-18T14:08:23.056Z,7.53
2018-08-18T14:10:51.285Z,7.50
2018-08-18T14:13:19.657Z,6.80
2018-08-18T14:15:54.006Z,6.73
2018-08-18T14:18:22.196Z,6.90
2018-08-18T14:20:58.110Z,8.10
2018-08-18T14:23:26.431Z,6.70
2018-08-18T14:25:54.630Z,7.30
2018-08-18T14:28:22.876Z,6.70
2018-08-18T14:30:51.109Z,7.07
2018-08-18T14:33:19.311Z,6.40
2018-08-18T14:35:47.544Z,6.30
2018-08-18T14:38:15.813Z,7.50
2018-08-18T14:40:45.921Z,6.90
2018-08-18T14:43:17.219Z,8.43
2018-08-18T14:45:45.487Z,6.90
2018-08-18T14:48:13.657Z,6.60
2018-08-18T14:50:41.911Z,6.57
2018-08-18T14:53:15.640Z,6.97
2018-08-18T14:55:43.829Z,7.03
2018-08-18T14:58:11.985Z,7.50
2018-08-18T15:00:40.161Z,7.23
2018-08-18T15:03:08.364Z,6.60
2018-08-18T15:05:36.527Z,6.30
2018-08-18T15:08:04.776Z,6.73
2018-08-18T15:10:38.150Z,6.33
2018-08-18T15:13:06.841Z,6.20
2018-08-18T15:15:35.513Z,6.03
2018-08-18T15:18:06.047Z,5.53
2018-08-18T15:20:35.381Z,5.90
2018-08-18T15:23:04.308Z,5.33
2018-08-18T15:25:33.497Z,5.73
2018-08-18T15:28:06.688Z,5.50
2018-08-18T15:30:36.167Z,5.80
2018-08-18T15:33:04.483Z,6.10
2018-08-18T15:35:34.713Z,5.10
2018-08-18T15:38:02.982Z,5.83
2018-08-18T15:40:31.251Z,5.80
2018-08-18T15:43:00.473Z,5.33
2018-08-18T15:45:29.236Z,5.80
2018-08-18T15:47:57.508Z,5.80
2018-08-18T15:50:26.520Z,5.90
2018-08-18T15:52:54.803Z,5.43
2018-08-18T15:55:23.033Z,6.03
2018-08-18T15:57:52.200Z,6.60
2018-08-18T16:00:26.721Z,6.03
2018-08-18T16:02:55.392Z,5.90
2018-08-18T16:05:24.615Z,6.40
2018-08-18T16:07:53.177Z,6.43
2018-08-18T16:10:21.428Z,6.90
2018-08-18T16:12:50.048Z,6.23
2018-08-18T16:15:18.937Z,6.20
2018-08-18T16:17:47.101Z,6.47
2018-08-18T16:20:22.048Z,5.83
2018-08-18T16:22:51.560Z,6.60
2018-08-18T16:25:25.265Z,6.40
2018-08-18T16:27:53.412Z,7.27
2018-08-18T16:30:22.540Z,6.27
2018-08-18T16:32:59.398Z,6.80
2018-08-18T16:35:27.548Z,6.90
2018-08-18T16:37:55.675Z,6.40
2018-08-18T16:40:23.832Z,6.10
2018-08-18T16:42:52.028Z,5.73
2018-08-18T16:45:20.196Z,6.07
2018-08-18T16:47:52.464Z,6.60
2018-08-18T16:50:20.781Z,6.93
2018-08-18T16:52:48.953Z,6.87
2018-08-18T16:55:17.170Z,6.43
2018-08-18T16:57:45.364Z,7.60
2018-08-18T17:00:13.580Z,6.70
2018-08-18T17:02:41.758Z,6.90
2018-08-18T17:05:10.054Z,8.03
2018-08-18T17:07:40.759Z,7.40
2018-08-18T17:10:08.936Z,8.00
2018-08-18T17:12:37.113Z,7.80
2018-08-18T17:15:05.724Z,7.87
2018-08-18T17:17:33.920Z,7.43
2018-08-18T17:20:02.117Z,7.70
2018-08-18T17:22:30.314Z,6.93
2018-08-18T17:24:58.520Z,7.17
2018-08-18T17:27:28.060Z,8.00
2018-08-18T17:29:56.229Z,7.63
2018-08-18T17:32:25.751Z,7.10
2018-08-18T17:34:53.930Z,7.83
2018-08-18T17:37:22.073Z,7.30
2018-08-18T17:39:50.222Z,6.77
2018-08-18T17:42:18.425Z,7.20
2018-08-18T17:44:46.587Z,7.27
2018-08-18T17:47:14.771Z,8.10
2018-08-18T17:49:51.260Z,7.17
2018-08-18T17:52:19.442Z,7.60
2018-08-18T17:54:57.512Z,7.87
2018-08-18T17:57:25.709Z,6.90
2018-08-18T17:59:54.166Z,7.37
2018-08-18T18:02:22.348Z,7.90
2018-08-18T18:04:54.789Z,7.17
2018-08-18T18:07:23.066Z,7.80
2018-08-18T18:09:51.244Z,8.17
2018-08-18T18:12:20.873Z,7.90
2018-08-18T18:14:49.051Z,8.40
2018-08-18T18:17:17.258Z,8.67
2018-08-18T18:19:45.416Z,8.83
2018-08-18T18:22:13.644Z,8.67
2018-08-18T18:24:43.251Z,8.60
2018-08-18T18:27:11.460Z,9.20
2018-08-18T18:29:39.695Z,8.50
2018-08-18T18:32:07.916Z,8.90
2018-08-18T18:34:36.066Z,9.27
2018-08-18T18:37:04.248Z,8.90
2018-08-18T18:39:32.523Z,9.40
2018-08-18T18:42:00.740Z,8.77
2018-08-18T18:44:28.921Z,8.73
2018-08-18T18:46:57.137Z,8.70
2018-08-18T18:49:30.789Z,9.55
2018-08-18T18:51:59.418Z,10.20
2018-08-18T18:54:27.650Z,10.13
2018-08-18T18:56:55.854Z,9.87
2018-08-18T18:59:24.015Z,9.20
2018-08-18T19:01:52.175Z,9.30
2018-08-18T19:04:20.356Z,10.00
2018-08-18T19:06:55.752Z,9.07
2018-08-18T19:09:24.549Z,9.87
2018-08-18T19:11:52.827Z,9.47
2018-08-18T19:14:21.461Z,11.03
2018-08-18T19:16:50.186Z,10.07
2018-08-18T19:19:19.262Z,9.43
2018-08-18T19:21:47.421Z,9.43
2018-08-18T19:24:19.935Z,8.53
2018-08-18T19:26:49.611Z,8.60
2018-08-18T19:29:18.415Z,9.53
2018-08-18T19:31:48.968Z,9.87
2018-08-18T19:34:17.201Z,9.70
2018-08-18T19:36:53.488Z,9.97
2018-08-18T19:39:22.061Z,10.43
2018-08-18T19:41:50.227Z,9.93
2018-08-18T19:44:18.439Z,10.80
2018-08-18T19:46:46.711Z,10.20
2018-08-18T19:49:19.309Z,10.17
2018-08-18T19:51:47.519Z,9.70
2018-08-18T19:54:15.714Z,11.07
2018-08-18T19:56:43.876Z,9.90
2018-08-18T19:59:12.080Z,10.00
2018-08-18T20:01:40.247Z,9.90
2018-08-18T20:04:11.441Z,10.63
2018-08-18T20:06:39.614Z,10.40
2018-08-18T20:09:07.920Z,10.73
2018-08-18T20:11:36.095Z,9.60
2018-08-18T20:14:04.313Z,10.10
2018-08-18T20:16:32.476Z,9.27
2018-08-18T20:19:00.661Z,9.20
2018-08-18T20:21:28.835Z,9.77
2018-08-18T20:23:57.023Z,9.50
2018-08-18T20:26:25.233Z,9.80
2018-08-18T20:28:53.769Z,10.50
2018-08-18T20:31:21.922Z,10.00
2018-08-18T20:33:50.124Z,9.90
2018-08-18T20:36:18.336Z,10.13
2018-08-18T20:38:46.507Z,11.07
2018-08-18T20:41:14.703Z,11.03
2018-08-18T20:43:46.645Z,10.50
2018-08-18T20:46:14.908Z,10.77
2018-08-18T20:48:43.133Z,9.93
2018-08-18T20:51:11.407Z,10.87
2018-08-18T20:53:39.602Z,11.80
2018-08-18T20:56:07.777Z,10.93
2018-08-18T20:58:35.979Z,11.33
2018-08-18T21:01:04.206Z,10.30
2018-08-18T21:03:42.264Z,10.67
2018-08-18T21:06:10.451Z,11.00
2018-08-18T21:08:38.614Z,10.77
2018-08-18T21:11:06.907Z,10.83
2018-08-18T21:13:35.122Z,11.67
2018-08-18T21:16:03.297Z,11.23
2018-08-18T21:18:31.660Z,11.90
2018-08-18T21:21:00.220Z,10.50
2018-08-18T21:23:28.402Z,11.07
2018-08-18T21:25:56.567Z,11.93
2018-08-18T21:28:25.286Z,11.00
2018-08-18T21:30:53.474Z,11.27
2018-08-18T21:33:23.889Z,11.80
2018-08-18T21:35:52.083Z,11.70
2018-08-18T21:38:20.274Z,11.03
2018-08-18T21:40:48.472Z,11.67
2018-08-18T21:43:22.226Z,11.57
2018-08-18T21:45:52.455Z,11.13
2018-08-18T21:48:20.729Z,11.83
2018-08-18T21:50:48.908Z,12.23
2018-08-18T21:53:17.068Z,12.13
2018-08-18T21:55:45.245Z,12.30
2018-08-18T21:58:13.466Z,13.10
2018-08-18T22:00:41.730Z,12.00
2018-08-18T22:03:09.880Z,11.20
2018-08-18T22:05:38.074Z,12.20
2018-08-18T22:08:06.245Z,11.23
2018-08-18T22:10:34.478Z,11.80
2018-08-18T22:13:02.669Z,12.23
2018-08-18T22:15:31.063Z,12.60
2018-08-18T22:17:59.247Z,12.97
2018-08-18T22:20:27.445Z,12.60
2018-08-18T22:22:55.620Z,13.30
2018-08-18T22:25:23.803Z,12.13
2018-08-18T22:27:52.117Z,12.40
2018-08-18T22:30:20.696Z,12.73
2018-08-18T22:32:48.905Z,12.60
2018-08-18T22:35:17.074Z,13.00
2018-08-18T22:37:45.324Z,12.30
2018-08-18T22:40:13.552Z,13.60
2018-08-18T22:42:41.792Z,13.20
2018-08-18T22:45:15.791Z,12.37
2018-08-18T22:47:45.099Z,14.33
2018-08-18T22:50:13.967Z,14.33
2018-08-18T22:52:43.620Z,13.27
2018-08-18T22:55:11.782Z,12.90
2018-08-18T22:57:41.824Z,12.40
2018-08-18T23:00:09.987Z,12.60
2018-08-18T23:02:38.155Z,12.80
2018-08-18T23:05:06.329Z,12.70
2018-08-18T23:07:34.518Z,13.90
2018-08-18T23:10:02.763Z,13.10
2018-08-18T23:12:30.932Z,12.93
2018-08-18T23:14:59.106Z,14.07
2018-08-18T23:17:27.282Z,13.40
2018-08-18T23:19:55.442Z,13.40
2018-08-18T23:22:29.105Z,13.57
2018-08-18T23:24:57.298Z,13.60
2018-08-18T23:27:26.505Z,14.37
2018-08-18T23:29:54.661Z,13.83
2018-08-18T23:32:25.296Z,14.20
2018-08-18T23:34:53.643Z,13.20
2018-08-18T23:37:22.023Z,14.80
2018-08-18T23:39:54.452Z,13.60
2018-08-18T23:42:23.470Z,14.27
2018-08-18T23:44:51.633Z,14.10
2018-08-18T23:47:20.258Z,13.63
2018-08-18T23:49:48.536Z,14.87
2018-08-18T23:52:16.720Z,13.33
2018-08-18T23:54:44.984Z,14.10
2018-08-18T23:57:14.438Z,13.87
2018-08-18T23:59:42.596Z,14.43
